Time;durP1;ratioP1;P1;durP2;ratioP2;P2;SDS_P1;SDS_P2;PMS_P1;PMS_P2;Temp;Humidity;BMP_temperature;BMP_pressure;BME280_temperature;BME280_humidity;BME280_pressure;Samples;Min_cycle;Max_cycle;Signal;HPM_P1;HPM_P2
2023/12/03 00:00:47;;;;;;;17.40;9.98;;;22.80;39.70;;;;;;6138662;28;83131;-63
2023/12/03 00:03:47;;;;;;;18.08;10.85;;;22.80;39.70;;;;;;6135340;28;84169;-63
2023/12/03 00:06:48;;;;;;;15.65;9.93;;;22.80;39.90;;;;;;6127712;28;83681;-62
2023/12/03 00:09:48;;;;;;;16.90;9.35;;;22.70;39.70;;;;;;6138228;28;83215;-62
2023/12/03 00:12:49;;;;;;;16.17;9.75;;;22.70;39.70;;;;;;6140679;28;81784;-65
2023/12/03 00:15:49;;;;;;;16.08;9.82;;;22.70;39.70;;;;;;6127822;28;85328;-65
2023/12/03 00:18:50;;;;;;;12.95;8.43;;;22.70;39.70;;;;;;6127933;28;81311;-66
2023/12/03 00:21:50;;;;;;;15.82;9.65;;;22.70;39.80;;;;;;6137955;28;81149;-65
2023/12/03 00:24:51;;;;;;;18.00;9.80;;;22.70;39.80;;;;;;6139168;28;84839;-65
2023/12/03 00:27:52;;;;;;;14.70;9.13;;;22.70;39.90;;;;;;6126483;28;80997;-65
2023/12/03 00:30:52;;;;;;;13.38;8.30;;;22.70;39.90;;;;;;6130877;28;80964;-67
2023/12/03 00:33:53;;;;;;;13.23;8.85;;;22.70;40.00;;;;;;6137569;28;80809;-65
2023/12/03 00:36:53;;;;;;;16.48;8.77;;;22.70;40.10;;;;;;6135594;28;80890;-64
2023/12/03 00:39:54;;;;;;;14.65;8.90;;;22.60;40.00;;;;;;6138358;28;81443;-64
2023/12/03 00:42:54;;;;;;;15.70;9.18;;;22.70;40.30;;;;;;6138821;28;81775;-66
2023/12/03 00:45:57;;;;;;;13.55;8.30;;;22.70;40.40;;;;;;6137486;28;81391;-66
2023/12/03 00:48:58;;;;;;;16.45;9.93;;;22.70;40.40;;;;;;6135306;28;80989;-66
2023/12/03 00:51:58;;;;;;;14.18;8.95;;;22.70;40.40;;;;;;6137857;28;80627;-66
2023/12/03 00:54:58;;;;;;;14.60;8.45;;;22.60;40.40;;;;;;6139744;28;80662;-66
2023/12/03 00:57:59;;;;;;;14.85;9.35;;;22.60;40.50;;;;;;6138658;28;81580;-66
2023/12/03 01:00:59;;;;;;;13.75;8.60;;;22.60;40.50;;;;;;6127988;28;81768;-63
2023/12/03 01:04:00;;;;;;;13.95;8.35;;;22.60;40.60;;;;;;6126342;28;80679;-63
2023/12/03 01:07:01;;;;;;;13.57;8.43;;;22.60;40.60;;;;;;6128022;28;81246;-62
2023/12/03 01:10:01;;;;;;;12.32;7.75;;;22.60;40.70;;;;;;6136976;28;81627;-62
2023/12/03 01:13:02;;;;;;;14.00;8.35;;;22.60;40.70;;;;;;6138107;28;82215;-61
2023/12/03 01:16:02;;;;;;;13.57;8.15;;;22.60;40.40;;;;;;6136627;28;81382;-63
2023/12/03 01:19:03;;;;;;;13.93;8.07;;;22.60;40.90;;;;;;6136736;28;85165;-63
2023/12/03 01:22:03;;;;;;;12.75;8.20;;;22.60;40.80;;;;;;6137633;28;80759;-63
2023/12/03 01:25:03;;;;;;;13.02;7.95;;;22.60;41.10;;;;;;6126712;28;80878;-62
2023/12/03 01:28:04;;;;;;;11.35;7.70;;;22.60;40.90;;;;;;6137539;28;81147;-62
2023/12/03 01:31:04;;;;;;;12.95;8.40;;;22.60;41.40;;;;;;6130551;28;82900;-62
2023/12/03 01:34:05;;;;;;;13.35;8.85;;;22.60;41.30;;;;;;6131888;28;81088;-73
2023/12/03 01:37:05;;;;;;;13.75;8.00;;;22.60;41.30;;;;;;6132282;28;81561;-72
2023/12/03 01:40:07;;;;;;;12.77;8.07;;;22.60;40.50;;;;;;6139553;28;81325;-71
2023/12/03 01:43:07;;;;;;;10.63;6.93;;;22.60;40.30;;;;;;6129104;28;81092;-71
2023/12/03 01:46:08;;;;;;;12.50;8.00;;;22.60;40.60;;;;;;6130878;28;81074;-69
2023/12/03 01:49:08;;;;;;;12.98;8.63;;;22.60;40.30;;;;;;6132279;28;81439;-71
2023/12/03 01:52:09;;;;;;;13.13;8.65;;;22.60;40.00;;;;;;6127617;28;86241;-67
2023/12/03 01:55:09;;;;;;;14.95;8.65;;;22.70;40.40;;;;;;6138795;28;81693;-67
2023/12/03 01:58:10;;;;;;;13.30;8.93;;;22.60;40.10;;;;;;6136950;28;81354;-70
2023/12/03 02:01:10;;;;;;;13.02;8.77;;;22.60;40.30;;;;;;6143935;28;83025;-67
2023/12/03 02:04:11;;;;;;;15.82;9.95;;;22.60;41.00;;;;;;6141245;28;81414;-72
2023/12/03 02:07:11;;;;;;;13.48;8.77;;;22.60;40.80;;;;;;6145831;28;80619;-69
2023/12/03 02:10:12;;;;;;;15.15;9.57;;;22.60;40.80;;;;;;6151769;28;81414;-73
2023/12/03 02:13:12;;;;;;;18.35;9.07;;;22.50;40.60;;;;;;6151414;28;80496;-76
2023/12/03 02:16:13;;;;;;;14.85;9.05;;;22.50;41.30;;;;;;6150819;28;81656;-72
2023/12/03 02:19:13;;;;;;;17.25;10.75;;;22.50;41.90;;;;;;6150162;28;80651;-71
2023/12/03 02:22:14;;;;;;;17.10;9.98;;;22.50;41.40;;;;;;6146601;28;82832;-70
2023/12/03 02:25:14;;;;;;;16.05;10.25;;;22.50;41.50;;;;;;6148828;28;83725;-73
2023/12/03 02:28:14;;;;;;;18.70;9.93;;;22.50;41.90;;;;;;6136014;28;84522;-71
2023/12/03 02:31:15;;;;;;;20.30;12.13;;;22.50;42.10;;;;;;6148910;28;83008;-63
2023/12/03 02:34:16;;;;;;;20.95;11.38;;;22.50;41.20;;;;;;6147216;28;83267;-66
2023/12/03 02:37:16;;;;;;;19.73;12.00;;;22.50;41.20;;;;;;6149175;28;83985;-63
2023/12/03 02:40:16;;;;;;;20.83;13.10;;;22.50;41.00;;;;;;6147735;28;83019;-63
2023/12/03 02:43:17;;;;;;;25.67;13.32;;;22.50;40.80;;;;;;6147590;28;83147;-65
2023/12/03 02:46:17;;;;;;;23.33;14.15;;;22.50;41.00;;;;;;6148174;28;83072;-65
2023/12/03 02:49:18;;;;;;;20.67;12.73;;;22.40;40.70;;;;;;6148337;28;83606;-66
2023/12/03 02:52:18;;;;;;;20.73;12.18;;;22.40;40.80;;;;;;6140089;28;84767;-66
2023/12/03 02:55:19;;;;;;;23.67;13.95;;;22.40;41.50;;;;;;6145972;28;84354;-67
2023/12/03 02:58:19;;;;;;;20.67;13.30;;;22.40;40.70;;;;;;6146142;28;83976;-67
2023/12/03 03:01:20;;;;;;;20.08;13.32;;;22.40;40.90;;;;;;6147649;28;83342;-68
2023/12/03 03:04:20;;;;;;;21.23;12.20;;;22.40;40.70;;;;;;6144879;28;83743;-68
2023/12/03 03:07:21;;;;;;;20.33;12.00;;;22.40;40.60;;;;;;6145293;28;84720;-69
2023/12/03 03:10:21;;;;;;;17.70;10.48;;;22.40;41.20;;;;;;6147272;28;83205;-67
2023/12/03 03:13:22;;;;;;;21.70;11.93;;;22.40;41.80;;;;;;6147045;28;84229;-64
2023/12/03 03:16:24;;;;;;;19.35;12.05;;;22.40;40.70;;;;;;6138692;28;84063;-65
2023/12/03 03:19:25;;;;;;;21.33;11.55;;;22.40;40.80;;;;;;6141052;28;84040;-63
2023/12/03 03:22:25;;;;;;;18.45;11.35;;;22.40;40.60;;;;;;6146526;28;84862;-63
2023/12/03 03:25:26;;;;;;;17.73;10.63;;;22.50;40.30;;;;;;6146248;28;83291;-63
2023/12/03 03:28:26;;;;;;;15.55;9.50;;;22.40;40.50;;;;;;6146120;28;83238;-62
2023/12/03 03:31:27;;;;;;;16.27;9.75;;;22.40;40.80;;;;;;6149778;28;83033;-62
2023/12/03 03:34:27;;;;;;;14.60;9.50;;;22.40;41.20;;;;;;6174426;28;81042;-63
2023/12/03 03:37:28;;;;;;;16.63;10.13;;;22.40;41.50;;;;;;6174447;28;83028;-61
2023/12/03 03:40:28;;;;;;;15.32;9.20;;;22.40;41.20;;;;;;6170769;28;82843;-62
2023/12/03 03:43:29;;;;;;;12.50;8.70;;;22.40;41.50;;;;;;6174748;28;81645;-63
2023/12/03 03:46:29;;;;;;;13.63;8.50;;;22.50;41.90;;;;;;6172436;28;81191;-64
2023/12/03 03:49:30;;;;;;;13.38;8.70;;;22.40;41.70;;;;;;6174694;28;80959;-62
2023/12/03 03:52:31;;;;;;;12.80;8.05;;;22.40;41.40;;;;;;6166388;28;81102;-63
2023/12/03 03:55:31;;;;;;;13.27;8.35;;;22.40;40.90;;;;;;6177940;28;82212;-66
2023/12/03 03:58:32;;;;;;;12.60;8.25;;;22.50;40.70;;;;;;6174803;28;81125;-64
2023/12/03 04:01:32;;;;;;;12.82;8.55;;;22.40;40.40;;;;;;6173650;28;80375;-64
2023/12/03 04:04:33;;;;;;;14.70;8.25;;;22.40;39.90;;;;;;6173468;28;80511;-64
2023/12/03 04:07:33;;;;;;;13.48;8.55;;;22.40;40.20;;;;;;6178442;28;82244;-63
2023/12/03 04:10:34;;;;;;;14.40;7.50;;;22.40;40.20;;;;;;6177893;28;83012;-63
2023/12/03 04:13:34;;;;;;;11.30;7.97;;;22.40;40.00;;;;;;6174114;28;87698;-63
2023/12/03 04:16:34;;;;;;;12.25;6.47;;;22.40;40.20;;;;;;6178678;28;81642;-64
2023/12/03 04:19:35;;;;;;;12.10;7.07;;;22.40;40.00;;;;;;6179757;28;80669;-75
2023/12/03 04:22:35;;;;;;;10.50;7.65;;;22.40;39.70;;;;;;6179478;28;81153;-77
2023/12/03 04:25:36;;;;;;;10.57;7.00;;;22.50;39.60;;;;;;6171443;28;81121;-77
2023/12/03 04:28:37;;;;;;;10.05;6.38;;;22.40;39.50;;;;;;6179965;28;80687;-75
2023/12/03 04:31:37;;;;;;;8.23;6.00;;;22.50;39.70;;;;;;6173077;28;80454;-71
2023/12/03 04:34:38;;;;;;;10.43;5.97;;;22.50;39.70;;;;;;6171985;28;80926;-74
2023/12/03 04:37:38;;;;;;;9.48;6.20;;;22.50;39.80;;;;;;6174551;28;80449;-75
2023/12/03 04:40:39;;;;;;;9.70;7.13;;;22.50;39.30;;;;;;6178962;28;80413;-64
2023/12/03 04:43:39;;;;;;;8.10;5.10;;;22.60;39.20;;;;;;6173713;28;82519;-64
2023/12/03 04:46:41;;;;;;;9.52;6.03;;;22.60;39.40;;;;;;6177515;28;83832;-64
2023/12/03 04:49:41;;;;;;;7.47;5.32;;;22.60;39.00;;;;;;6169308;28;81377;-64
2023/12/03 04:52:42;;;;;;;8.32;6.13;;;22.60;39.10;;;;;;6177392;28;81170;-63
2023/12/03 04:55:42;;;;;;;8.25;5.22;;;22.60;39.10;;;;;;6177868;28;80671;-61
2023/12/03 04:58:43;;;;;;;11.02;6.32;;;22.60;38.80;;;;;;6173826;28;81146;-62
2023/12/03 05:01:44;;;;;;;7.30;5.40;;;22.70;38.80;;;;;;6175185;28;80508;-61
2023/12/03 05:04:44;;;;;;;6.72;4.70;;;22.70;39.30;;;;;;6163479;28;82296;-67
2023/12/03 05:07:45;;;;;;;8.50;5.38;;;22.70;39.30;;;;;;6163886;28;81247;-66
2023/12/03 05:10:45;;;;;;;6.75;4.88;;;22.70;39.20;;;;;;6171066;28;81615;-63
2023/12/03 05:13:46;;;;;;;8.23;5.47;;;22.70;39.50;;;;;;6163934;28;86229;-66
2023/12/03 05:16:46;;;;;;;7.07;4.80;;;22.70;39.70;;;;;;6171152;28;80638;-63
2023/12/03 05:19:47;;;;;;;7.60;4.63;;;22.80;39.50;;;;;;6175223;28;80776;-63
2023/12/03 05:22:47;;;;;;;7.10;4.35;;;22.80;39.70;;;;;;6176516;28;80236;-64
2023/12/03 05:25:48;;;;;;;7.65;4.70;;;22.80;39.60;;;;;;6175114;28;80956;-64
2023/12/03 05:28:49;;;;;;;6.72;4.30;;;22.80;39.70;;;;;;6173776;28;80379;-64
2023/12/03 05:31:49;;;;;;;7.63;4.40;;;22.80;39.70;;;;;;6174533;28;82203;-65
2023/12/03 05:34:49;;;;;;;6.30;4.50;;;22.80;39.40;;;;;;6176568;28;81613;-64
2023/12/03 05:37:50;;;;;;;6.03;4.43;;;22.80;39.30;;;;;;6167266;28;80883;-63
2023/12/03 05:40:50;;;;;;;5.22;3.78;;;22.80;39.20;;;;;;6166047;28;81371;-65
2023/12/03 05:43:51;;;;;;;5.63;3.80;;;22.80;39.20;;;;;;6171723;28;82696;-63
2023/12/03 05:46:52;;;;;;;7.35;4.40;;;22.80;39.40;;;;;;6176187;28;80614;-64
2023/12/03 05:49:52;;;;;;;5.20;3.50;;;22.80;39.10;;;;;;6175507;28;81117;-63
2023/12/03 05:52:53;;;;;;;4.75;3.40;;;22.80;39.30;;;;;;6176436;28;81778;-64
2023/12/03 05:55:53;;;;;;;4.70;3.40;;;22.80;39.00;;;;;;6175841;28;80647;-64
2023/12/03 05:58:54;;;;;;;6.57;3.70;;;22.80;38.90;;;;;;6173000;28;80569;-64
2023/12/03 06:01:54;;;;;;;5.10;3.58;;;22.90;38.50;;;;;;6171629;28;81273;-64
2023/12/03 06:04:55;;;;;;;6.78;4.00;;;22.80;38.20;;;;;;6177365;28;80608;-64
2023/12/03 06:07:55;;;;;;;5.18;3.35;;;22.80;38.50;;;;;;6175359;28;81388;-62
2023/12/03 06:10:56;;;;;;;7.53;4.45;;;22.80;38.30;;;;;;6175221;28;82897;-66
2023/12/03 06:13:56;;;;;;;5.03;3.20;;;22.80;38.50;;;;;;6174839;28;80485;-67
2023/12/03 06:16:57;;;;;;;6.10;3.58;;;22.90;38.20;;;;;;6172997;28;80450;-63
2023/12/03 06:19:57;;;;;;;7.28;3.33;;;22.80;38.10;;;;;;6172668;28;80446;-63
2023/12/03 06:22:58;;;;;;;7.45;3.92;;;22.80;38.50;;;;;;6175658;28;80201;-63
2023/12/03 06:25:58;;;;;;;4.88;2.95;;;22.80;38.70;;;;;;6171647;28;80210;-63
2023/12/03 06:28:59;;;;;;;5.88;3.30;;;22.80;38.80;;;;;;6175247;28;80588;-61
2023/12/03 06:32:00;;;;;;;4.90;3.40;;;22.80;38.80;;;;;;6172568;28;81272;-61
2023/12/03 06:35:00;;;;;;;5.15;3.08;;;22.80;39.20;;;;;;6176511;28;80971;-62
2023/12/03 06:38:02;;;;;;;4.78;3.22;;;22.80;38.90;;;;;;6175627;28;80607;-62
2023/12/03 06:41:02;;;;;;;7.30;3.00;;;22.80;39.00;;;;;;6165448;28;80908;-61
2023/12/03 06:44:03;;;;;;;4.47;2.92;;;22.80;39.10;;;;;;6174996;28;80451;-63
2023/12/03 06:47:03;;;;;;;4.70;2.97;;;22.80;39.30;;;;;;6176502;28;81730;-63
2023/12/03 06:50:04;;;;;;;8.07;2.67;;;22.80;39.30;;;;;;6174658;28;80486;-63
2023/12/03 06:53:04;;;;;;;6.38;2.67;;;22.80;39.20;;;;;;6166381;28;82677;-61
2023/12/03 06:56:05;;;;;;;4.43;2.75;;;22.80;39.40;;;;;;6171072;28;80519;-61
2023/12/03 06:59:05;;;;;;;5.03;2.67;;;22.80;39.20;;;;;;6172074;28;80826;-60
2023/12/03 07:02:05;;;;;;;10.48;2.85;;;22.80;39.40;;;;;;6170674;28;80604;-60
2023/12/03 07:05:06;;;;;;;7.32;2.88;;;22.80;39.60;;;;;;6176162;28;81049;-59
2023/12/03 07:08:06;;;;;;;8.45;3.38;;;22.70;39.60;;;;;;6175774;28;80593;-65
2023/12/03 07:11:07;;;;;;;9.85;2.60;;;22.70;39.70;;;;;;6174167;28;82643;-63
2023/12/03 07:14:07;;;;;;;3.70;2.40;;;22.70;39.10;;;;;;6173132;28;80583;-59
2023/12/03 07:17:08;;;;;;;7.25;2.80;;;22.70;39.90;;;;;;6173238;28;81058;-60
2023/12/03 07:20:08;;;;;;;5.00;3.03;;;22.60;38.90;;;;;;6173367;28;80094;-60
2023/12/03 07:23:09;;;;;;;6.35;2.83;;;22.60;40.10;;;;;;6175110;28;81270;-61
2023/12/03 07:26:09;;;;;;;6.45;2.42;;;22.60;41.90;;;;;;6172831;28;80196;-60
2023/12/03 07:29:10;;;;;;;6.10;3.03;;;22.70;41.20;;;;;;6179573;28;82086;-61
2023/12/03 07:32:10;;;;;;;8.43;2.80;;;22.70;40.80;;;;;;6177922;28;80919;-59
2023/12/03 07:35:11;;;;;;;5.18;2.50;;;22.70;40.90;;;;;;6179036;28;80852;-60
2023/12/03 07:38:11;;;;;;;5.20;2.80;;;22.70;41.50;;;;;;6178164;28;80461;-63
2023/12/03 07:41:12;;;;;;;7.10;3.00;;;22.70;43.20;;;;;;6179016;28;83339;-59
2023/12/03 07:44:12;;;;;;;6.82;3.05;;;22.70;43.80;;;;;;6179312;28;80212;-60
2023/12/03 07:47:13;;;;;;;4.88;3.08;;;22.70;43.20;;;;;;6178776;28;83077;-59
2023/12/03 07:50:13;;;;;;;6.97;2.80;;;22.70;43.30;;;;;;6177210;28;83398;-60
2023/12/03 07:53:14;;;;;;;6.85;2.65;;;22.70;42.70;;;;;;6175284;28;80805;-60
2023/12/03 07:56:14;;;;;;;10.02;3.10;;;22.70;42.60;;;;;;6177494;28;80844;-61
2023/12/03 07:59:15;;;;;;;7.35;2.75;;;22.70;42.80;;;;;;6171666;28;83267;-62
2023/12/03 08:02:16;;;;;;;5.93;2.83;;;22.60;41.90;;;;;;6175209;28;80527;-62
2023/12/03 08:05:16;;;;;;;5.40;3.00;;;22.60;41.20;;;;;;6179756;28;81835;-61
2023/12/03 08:08:17;;;;;;;8.65;2.90;;;22.60;41.00;;;;;;6170550;28;80517;-60
2023/12/03 08:11:17;;;;;;;5.22;2.42;;;22.60;41.60;;;;;;6163899;28;88874;-60
2023/12/03 08:14:18;;;;;;;4.68;2.50;;;22.60;42.00;;;;;;6161743;28;81808;-60
2023/12/03 08:17:18;;;;;;;4.78;2.60;;;22.50;41.20;;;;;;6161897;28;80266;-60
2023/12/03 08:20:19;;;;;;;4.25;2.50;;;22.50;41.90;;;;;;6155547;28;81501;-67
2023/12/03 08:23:19;;;;;;;6.03;2.47;;;22.50;41.60;;;;;;6163941;28;84958;-61
2023/12/03 08:26:20;;;;;;;10.82;3.08;;;22.60;41.80;;;;;;6160299;28;86312;-60
2023/12/03 08:29:20;;;;;;;10.43;2.72;;;22.50;41.90;;;;;;6163360;28;81669;-61
2023/12/03 08:32:21;;;;;;;18.73;3.17;;;22.60;42.50;;;;;;6156786;28;81116;-59
2023/12/03 08:35:21;;;;;;;6.10;2.80;;;22.60;42.20;;;;;;6155082;28;81832;-62
2023/12/03 08:38:22;;;;;;;9.73;2.40;;;22.60;41.90;;;;;;6161595;28;80755;-61
2023/12/03 08:41:22;;;;;;;3.88;2.55;;;22.60;41.90;;;;;;6160542;28;81406;-60
2023/12/03 08:44:23;;;;;;;4.85;2.97;;;22.60;41.70;;;;;;6166974;28;84536;-61
2023/12/03 08:47:23;;;;;;;5.90;2.42;;;22.60;41.70;;;;;;6152018;28;83551;-60
2023/12/03 08:50:27;;;;;;;5.28;2.53;;;22.70;41.60;;;;;;6148582;28;85331;-65
2023/12/03 08:53:27;;;;;;;10.30;3.22;;;22.70;41.60;;;;;;6169292;28;84221;-67
2023/12/03 08:56:28;;;;;;;6.40;2.50;;;22.80;41.80;;;;;;6167154;28;80627;-62
2023/12/03 08:59:28;;;;;;;4.55;2.28;;;22.80;41.80;;;;;;6160836;28;80973;-59
2023/12/03 09:02:29;;;;;;;5.28;2.67;;;22.80;41.70;;;;;;6168490;28;80919;-60
2023/12/03 09:05:29;;;;;;;3.53;2.40;;;22.90;42.10;;;;;;6166831;28;80803;-60
2023/12/03 09:08:30;;;;;;;3.80;2.55;;;22.90;42.00;;;;;;6177173;28;81009;-63
2023/12/03 09:11:30;;;;;;;5.57;2.50;;;22.90;42.10;;;;;;6174933;28;81553;-61
2023/12/03 09:14:31;;;;;;;3.50;2.20;;;23.00;42.20;;;;;;6178312;28;80504;-59
2023/12/03 09:17:32;;;;;;;5.55;2.65;;;22.90;41.90;;;;;;6175529;28;80750;-60
2023/12/03 09:20:32;;;;;;;4.30;2.50;;;23.00;41.80;;;;;;6178685;28;83823;-61
2023/12/03 09:23:33;;;;;;;5.30;2.75;;;23.00;41.80;;;;;;6171130;28;80333;-60
2023/12/03 09:26:34;;;;;;;5.95;3.33;;;23.00;41.60;;;;;;6174144;28;80979;-64
2023/12/03 09:29:36;;;;;;;4.30;2.80;;;23.00;41.10;;;;;;6167537;28;82813;-63
2023/12/03 09:32:36;;;;;;;4.88;2.97;;;23.00;41.00;;;;;;6174259;28;82624;-70
2023/12/03 09:35:37;;;;;;;4.28;2.50;;;23.00;40.80;;;;;;6178638;28;80527;-62
2023/12/03 09:38:37;;;;;;;4.22;2.50;;;23.00;40.80;;;;;;6163666;28;80534;-57
2023/12/03 09:41:38;;;;;;;8.65;2.60;;;23.10;40.80;;;;;;6174684;28;80165;-64
2023/12/03 09:44:41;;;;;;;6.63;3.13;;;23.10;40.80;;;;;;6178103;28;80280;-64
2023/12/03 09:47:42;;;;;;;4.82;3.08;;;23.00;40.70;;;;;;6175616;28;81921;-64
2023/12/03 09:50:43;;;;;;;6.47;2.80;;;23.10;40.60;;;;;;6175457;28;83054;-60
2023/12/03 09:53:47;;;;;;;3.65;2.72;;;23.10;40.40;;;;;;6175796;28;81452;-59
2023/12/03 09:56:48;;;;;;;5.30;2.75;;;23.10;40.40;;;;;;6174666;28;80295;-61
2023/12/03 09:59:48;;;;;;;6.03;3.45;;;23.10;40.40;;;;;;6178071;28;80257;-60
2023/12/03 10:02:49;;;;;;;6.43;3.22;;;23.10;40.40;;;;;;6171367;28;80985;-60
2023/12/03 10:05:49;;;;;;;9.02;2.95;;;23.10;40.30;;;;;;6176730;28;80697;-60
2023/12/03 10:08:50;;;;;;;6.32;3.33;;;23.10;40.30;;;;;;6170742;28;80507;-60
2023/12/03 10:11:50;;;;;;;13.55;3.55;;;23.10;40.30;;;;;;6174147;28;81415;-58
2023/12/03 10:14:51;;;;;;;7.68;3.03;;;23.20;40.30;;;;;;6177747;28;80491;-62
2023/12/03 10:17:51;;;;;;;7.10;3.03;;;23.20;40.00;;;;;;6176093;28;80380;-67
2023/12/03 10:20:52;;;;;;;10.23;3.90;;;23.20;39.90;;;;;;6177316;28;80319;-63
2023/12/03 10:23:52;;;;;;;9.27;3.08;;;23.20;40.30;;;;;;6163299;28;80544;-65
2023/12/03 10:26:53;;;;;;;5.18;3.15;;;23.20;40.20;;;;;;6173519;28;83164;-61
2023/12/03 10:29:53;;;;;;;5.22;3.30;;;23.20;40.40;;;;;;6176329;28;80933;-60
2023/12/03 10:32:55;;;;;;;5.95;3.05;;;23.20;40.30;;;;;;6178158;28;87320;-59
2023/12/03 10:35:56;;;;;;;5.03;2.95;;;23.20;40.10;;;;;;6176102;28;82814;-59
2023/12/03 10:38:56;;;;;;;8.93;3.45;;;23.20;40.40;;;;;;6174498;28;82371;-60
2023/12/03 10:41:57;;;;;;;4.50;3.08;;;23.20;40.20;;;;;;6175811;28;80441;-59
2023/12/03 10:44:57;;;;;;;5.03;3.22;;;23.20;40.10;;;;;;6176588;28;80669;-60
2023/12/03 10:47:58;;;;;;;8.93;3.40;;;23.20;39.90;;;;;;6177895;28;80679;-60
2023/12/03 10:50:59;;;;;;;5.72;3.83;;;23.20;40.00;;;;;;6177147;28;80824;-61
2023/12/03 10:53:59;;;;;;;6.47;3.45;;;23.20;39.80;;;;;;6172770;28;81491;-60
2023/12/03 10:57:00;;;;;;;6.15;3.40;;;23.20;39.70;;;;;;6174950;28;83768;-59
2023/12/03 11:00:00;;;;;;;7.53;3.45;;;23.10;39.40;;;;;;6176946;28;80581;-61
2023/12/03 11:03:01;;;;;;;5.97;3.28;;;23.10;39.50;;;;;;6177664;28;80875;-59
2023/12/03 11:06:01;;;;;;;4.78;3.40;;;23.10;39.10;;;;;;6180612;28;80387;-60
2023/12/03 11:09:01;;;;;;;6.22;3.72;;;23.10;39.20;;;;;;6177553;28;81387;-61
2023/12/03 11:12:02;;;;;;;8.93;3.70;;;23.10;39.40;;;;;;6181444;28;80659;-63
2023/12/03 11:15:03;;;;;;;6.35;3.90;;;23.10;39.20;;;;;;6181879;28;80945;-59
2023/12/03 11:18:04;;;;;;;9.65;4.15;;;23.10;39.50;;;;;;6179556;28;82173;-61
2023/12/03 11:21:04;;;;;;;7.65;3.65;;;23.00;39.70;;;;;;6162725;28;81545;-61
2023/12/03 11:24:05;;;;;;;8.80;4.38;;;23.10;39.50;;;;;;6171885;28;81327;-56
2023/12/03 11:27:06;;;;;;;13.35;3.60;;;23.00;40.60;;;;;;6178146;28;80523;-57
2023/12/03 11:30:06;;;;;;;12.13;4.03;;;23.00;41.70;;;;;;6175173;28;81203;-58
2023/12/03 11:33:07;;;;;;;11.43;4.07;;;23.10;42.00;;;;;;6172788;28;80736;-56
2023/12/03 11:36:08;;;;;;;9.15;3.95;;;23.10;42.00;;;;;;6174307;28;81051;-58
2023/12/03 11:39:08;;;;;;;5.35;3.40;;;23.10;42.60;;;;;;6179321;28;80221;-59
2023/12/03 11:42:09;;;;;;;10.05;4.00;;;23.10;42.40;;;;;;6178608;28;83219;-54
2023/12/03 11:45:09;;;;;;;5.28;3.63;;;23.10;42.60;;;;;;6179163;28;80346;-57
2023/12/03 11:48:10;;;;;;;6.38;3.25;;;23.10;42.80;;;;;;6178690;28;80301;-61
2023/12/03 11:51:10;;;;;;;7.63;3.95;;;23.10;42.90;;;;;;6174899;28;81532;-60
2023/12/03 11:54:11;;;;;;;10.55;4.18;;;23.20;43.60;;;;;;6180635;28;81287;-55
2023/12/03 11:57:12;;;;;;;8.00;4.13;;;23.20;43.90;;;;;;6178646;28;80419;-60
2023/12/03 12:00:13;;;;;;;8.93;4.13;;;23.20;44.00;;;;;;6177615;28;83489;-60
2023/12/03 12:03:13;;;;;;;7.63;4.53;;;23.30;44.00;;;;;;6166881;28;85891;-59
2023/12/03 12:06:14;;;;;;;6.95;3.60;;;23.20;43.70;;;;;;6174358;28;80896;-61
2023/12/03 12:09:14;;;;;;;6.97;4.10;;;23.30;43.80;;;;;;6175810;28;80706;-61
2023/12/03 12:12:15;;;;;;;6.57;3.97;;;23.30;43.70;;;;;;6177456;28;81492;-58
2023/12/03 12:15:16;;;;;;;8.52;6.22;;;23.30;43.60;;;;;;6175987;28;84991;-59
2023/12/03 12:18:19;;;;;;;10.27;4.68;;;23.20;42.40;;;;;;6171729;28;81072;-61
2023/12/03 12:21:21;;;;;;;10.27;4.95;;;23.10;42.40;;;;;;6172400;28;81303;-60
2023/12/03 12:24:21;;;;;;;10.88;4.75;;;23.20;41.40;;;;;;6180993;28;80232;-60
2023/12/03 12:27:22;;;;;;;10.25;4.93;;;23.20;41.30;;;;;;6175718;28;80892;-61
2023/12/03 12:30:22;;;;;;;9.68;4.50;;;23.20;41.20;;;;;;6176875;28;81177;-59
2023/12/03 12:33:23;;;;;;;6.57;4.43;;;23.20;41.20;;;;;;6179214;28;81740;-59
2023/12/03 12:36:23;;;;;;;9.50;4.25;;;23.20;41.20;;;;;;6169172;28;80694;-60
2023/12/03 12:39:24;;;;;;;11.68;4.63;;;23.20;41.50;;;;;;6174443;28;80502;-59
2023/12/03 12:42:25;;;;;;;8.75;4.70;;;23.20;41.20;;;;;;6177826;28;81031;-59
2023/12/03 12:45:26;;;;;;;9.55;4.53;;;23.20;41.10;;;;;;6178837;28;81255;-59
2023/12/03 12:48:27;;;;;;;7.57;4.55;;;23.20;41.00;;;;;;6174699;28;84818;-59
2023/12/03 12:51:27;;;;;;;7.55;4.35;;;23.20;41.10;;;;;;6171788;28;80754;-61
2023/12/03 12:54:28;;;;;;;8.40;4.07;;;23.30;41.30;;;;;;6177981;28;80365;-60
2023/12/03 12:57:28;;;;;;;7.00;4.43;;;23.30;42.00;;;;;;6174500;28;85176;-60
2023/12/03 13:00:29;;;;;;;8.75;4.63;;;23.30;41.50;;;;;;6173721;28;80984;-58
2023/12/03 13:03:29;;;;;;;11.18;4.20;;;23.30;41.40;;;;;;6161775;28;80444;-58
2023/12/03 13:06:31;;;;;;;10.05;4.88;;;23.30;41.50;;;;;;6178460;28;81256;-60
2023/12/03 13:09:32;;;;;;;10.65;4.93;;;23.30;41.80;;;;;;6176989;28;81379;-59
2023/12/03 13:12:32;;;;;;;6.65;4.50;;;23.30;42.10;;;;;;6177279;28;80813;-60
2023/12/03 13:15:33;;;;;;;9.32;5.05;;;23.30;42.10;;;;;;6173075;28;81467;-65
2023/12/03 13:18:36;;;;;;;10.43;5.72;;;23.30;42.80;;;;;;6167640;28;80299;-62
2023/12/03 13:21:37;;;;;;;10.65;5.68;;;23.30;42.70;;;;;;6168618;28;81597;-62
2023/12/03 13:24:37;;;;;;;13.50;6.20;;;23.30;43.30;;;;;;6173174;28;80362;-62
2023/12/03 13:27:38;;;;;;;14.82;6.35;;;23.30;44.50;;;;;;6176812;28;82454;-61
2023/12/03 13:30:38;;;;;;;18.70;6.78;;;23.40;44.70;;;;;;6175767;28;81794;-62
2023/12/03 13:33:39;;;;;;;22.38;6.03;;;23.30;45.00;;;;;;6176904;28;80828;-60
2023/12/03 13:36:39;;;;;;;21.75;7.57;;;23.40;45.10;;;;;;6177293;28;80743;-57
2023/12/03 13:39:40;;;;;;;17.15;5.85;;;23.40;45.80;;;;;;6177318;28;81116;-60
2023/12/03 13:42:40;;;;;;;15.82;6.15;;;23.40;45.60;;;;;;6177304;28;81091;-57
2023/12/03 13:45:41;;;;;;;18.30;6.57;;;23.50;45.70;;;;;;6175960;28;80843;-59
2023/12/03 13:48:43;;;;;;;17.42;6.95;;;23.50;45.70;;;;;;6176466;28;81742;-60
2023/12/03 13:51:44;;;;;;;16.02;7.00;;;23.50;45.40;;;;;;6171297;28;83309;-58
2023/12/03 13:54:44;;;;;;;14.48;6.57;;;23.50;45.30;;;;;;6177212;28;80368;-57
2023/12/03 13:57:45;;;;;;;20.45;6.57;;;23.40;45.10;;;;;;6177098;28;81004;-59
2023/12/03 14:00:45;;;;;;;16.13;6.38;;;23.40;44.80;;;;;;6170591;28;82781;-60
2023/12/03 14:03:46;;;;;;;17.08;6.45;;;23.40;44.60;;;;;;6166732;28;80412;-63
2023/12/03 14:06:46;;;;;;;12.48;6.65;;;23.40;44.20;;;;;;6173783;28;82292;-62
2023/12/03 14:09:47;;;;;;;12.82;6.18;;;23.40;43.50;;;;;;6149256;28;81877;-61
2023/12/03 14:12:47;;;;;;;14.00;6.15;;;23.40;43.20;;;;;;6160158;28;80570;-61
2023/12/03 14:15:47;;;;;;;13.40;6.32;;;23.40;42.80;;;;;;6161174;28;85120;-61
2023/12/03 14:18:48;;;;;;;13.32;6.20;;;23.30;42.50;;;;;;6155368;28;80921;-62
2023/12/03 14:21:49;;;;;;;14.15;5.63;;;23.30;42.20;;;;;;6152413;28;81512;-61
2023/12/03 14:24:49;;;;;;;12.65;5.63;;;23.30;41.90;;;;;;6152372;28;80931;-61
2023/12/03 14:27:49;;;;;;;8.95;5.10;;;23.30;41.80;;;;;;6159850;28;80993;-62
2023/12/03 14:30:50;;;;;;;10.75;5.60;;;23.30;41.60;;;;;;6161386;28;81152;-61
2023/12/03 14:33:51;;;;;;;13.82;5.55;;;23.30;41.40;;;;;;6160524;28;81439;-60
2023/12/03 14:36:52;;;;;;;12.93;5.90;;;23.20;41.20;;;;;;6159942;28;81868;-61
2023/12/03 14:39:52;;;;;;;11.20;5.38;;;23.20;41.10;;;;;;6149864;28;81426;-60
2023/12/03 14:42:53;;;;;;;9.75;5.38;;;23.20;40.80;;;;;;6139369;28;84542;-60
2023/12/03 14:45:53;;;;;;;11.25;5.45;;;23.20;40.70;;;;;;6149580;28;81510;-61
2023/12/03 14:48:54;;;;;;;11.70;5.50;;;23.20;40.60;;;;;;6154934;28;82057;-61
2023/12/03 14:51:54;;;;;;;12.30;5.63;;;23.20;40.60;;;;;;6152709;28;81926;-61
2023/12/03 14:54:55;;;;;;;10.77;5.28;;;23.20;40.50;;;;;;6161027;28;82016;-61
2023/12/03 14:57:55;;;;;;;10.90;6.30;;;23.20;40.10;;;;;;6160321;28;81757;-65
2023/12/03 15:00:56;;;;;;;9.30;5.25;;;23.20;39.90;;;;;;6150376;28;85351;-63
2023/12/03 15:03:56;;;;;;;11.45;5.25;;;23.20;39.60;;;;;;6156207;28;81383;-62
2023/12/03 15:06:57;;;;;;;11.63;6.05;;;23.20;39.60;;;;;;6152384;28;80693;-61
2023/12/03 15:09:58;;;;;;;11.88;5.30;;;23.20;39.50;;;;;;6169392;28;81160;-62
2023/12/03 15:12:58;;;;;;;8.23;5.30;;;23.20;39.50;;;;;;6166184;28;80954;-59
2023/12/03 15:15:59;;;;;;;12.07;6.13;;;23.30;39.40;;;;;;6171999;28;81588;-62
2023/12/03 15:18:59;;;;;;;10.75;5.50;;;23.30;39.50;;;;;;6171767;28;81403;-66
2023/12/03 15:22:00;;;;;;;10.70;5.80;;;23.20;39.40;;;;;;6169376;28;81725;-61
2023/12/03 15:25:07;;;;;;;21.02;9.80;;;23.20;39.50;;;;;;6168273;28;80961;-64
2023/12/03 15:28:07;;;;;;;90.03;37.45;;;23.20;39.90;;;;;;6175356;28;80404;-59
2023/12/03 15:31:09;;;;;;;123.68;54.03;;;23.20;40.20;;;;;;6171556;28;84518;-61